createdAt,value
2023-03-22T00:02:26.322Z,13.72
2023-03-22T00:07:28.884Z,13.68
2023-03-22T00:12:31.124Z,13.64
2023-03-22T00:17:33.165Z,13.56
2023-03-22T00:22:48.422Z,13.52
2023-03-22T00:28:05.686Z,13.42
2023-03-22T00:33:54.096Z,13.36
2023-03-22T00:39:05.212Z,13.35
2023-03-22T00:44:10.576Z,13.30
2023-03-22T00:54:39.322Z,13.25
2023-03-22T00:59:43.143Z,13.20
2023-03-22T01:04:51.702Z,13.18
2023-03-22T01:10:12.500Z,13.15
2023-03-22T01:15:18.081Z,13.16
2023-03-22T01:20:22.647Z,13.16
2023-03-22T01:25:24.769Z,13.14
2023-03-22T01:30:26.902Z,13.06
2023-03-22T01:35:29.130Z,12.98
2023-03-22T01:40:32.468Z,12.87
2023-03-22T01:45:40.980Z,12.80
2023-03-22T01:50:49.754Z,12.74
2023-03-22T01:55:54.209Z,12.70
2023-03-22T02:05:14.489Z,12.66
2023-03-22T02:10:21.322Z,12.63
2023-03-22T02:15:48.689Z,12.59
2023-03-22T02:21:46.542Z,12.56
2023-03-22T02:27:23.553Z,12.58
2023-03-22T02:32:48.325Z,12.56
2023-03-22T02:38:09.385Z,12.54
2023-03-22T02:43:39.072Z,12.51
2023-03-22T02:48:50.571Z,12.50
2023-03-22T02:54:18.713Z,12.46
2023-03-22T02:59:23.809Z,12.40
2023-03-22T03:04:31.200Z,12.33
2023-03-22T03:09:33.844Z,12.28
2023-03-22T03:14:36.090Z,12.23
2023-03-22T03:19:58.419Z,12.18
2023-03-22T03:25:08.393Z,12.17
2023-03-22T03:30:31.862Z,12.15
2023-03-22T03:35:44.076Z,12.15
2023-03-22T03:40:52.090Z,12.13
2023-03-22T03:45:57.008Z,12.11
2023-03-22T03:51:03.509Z,12.09
2023-03-22T03:56:06.843Z,12.09
2023-03-22T04:01:13.780Z,12.04
2023-03-22T04:06:18.974Z,11.98
2023-03-22T04:11:25.980Z,11.94
2023-03-22T04:16:33.196Z,11.89
2023-03-22T04:21:35.996Z,11.86
2023-03-22T04:26:39.325Z,11.85
2023-03-22T04:31:56.557Z,11.81
2023-03-22T04:37:05.480Z,11.77
2023-03-22T04:42:26.871Z,11.75
2023-03-22T04:47:51.830Z,11.75
2023-03-22T04:52:55.671Z,11.74
2023-03-22T04:57:57.950Z,11.72
2023-03-22T05:18:56.811Z,12.17
2023-03-22T05:23:59.334Z,12.05
2023-03-22T05:29:01.845Z,11.93
2023-03-22T05:34:22.778Z,11.82
2023-03-22T05:39:28.249Z,11.74
2023-03-22T05:44:31.289Z,11.69
2023-03-22T05:49:42.229Z,11.69
2023-03-22T05:54:44.920Z,11.64
2023-03-22T05:59:47.315Z,11.62
2023-03-22T06:04:56.369Z,11.62
2023-03-22T06:10:00.044Z,11.62
2023-03-22T06:15:06.627Z,11.61
2023-03-22T06:20:13.722Z,11.64
2023-03-22T06:25:21.635Z,11.67
2023-03-22T06:30:25.144Z,11.69
2023-03-22T06:35:47.560Z,11.75
2023-03-22T06:40:56.748Z,11.78
2023-03-22T06:45:59.557Z,11.84
2023-03-22T06:51:07.982Z,11.91
2023-03-22T06:56:11.716Z,11.97
2023-03-22T07:01:26.784Z,12.02
2023-03-22T07:06:30.965Z,12.11
2023-03-22T07:11:33.340Z,12.23
2023-03-22T07:16:37.776Z,12.37
2023-03-22T07:21:41.475Z,12.63
2023-03-22T07:26:55.911Z,13.31
2023-03-22T07:32:05.400Z,14.06
2023-03-22T07:37:31.612Z,14.81
2023-03-22T07:42:34.836Z,15.44
2023-03-22T07:47:41.878Z,15.88
2023-03-22T07:52:53.046Z,16.25
2023-03-22T07:57:55.355Z,16.62
2023-03-22T08:02:58.931Z,16.86
2023-03-22T08:08:21.724Z,17.06
2023-03-22T08:13:24.184Z,17.27
2023-03-22T08:18:26.454Z,17.46
2023-03-22T08:23:41.023Z,17.66
2023-03-22T08:29:23.737Z,17.87
2023-03-22T08:34:28.504Z,18.04
2023-03-22T08:39:30.662Z,18.14
2023-03-22T08:44:52.594Z,18.28
2023-03-22T08:49:57.502Z,18.26
2023-03-22T08:55:10.669Z,18.37
2023-03-22T09:00:42.437Z,18.57
2023-03-22T09:06:06.858Z,18.54
2023-03-22T09:11:14.349Z,18.64
2023-03-22T09:16:19.404Z,18.85
2023-03-22T09:21:22.637Z,18.92
2023-03-22T09:26:32.927Z,19.01
2023-03-22T09:31:35.412Z,19.03
2023-03-22T09:37:13.118Z,19.02
2023-03-22T09:42:33.651Z,19.06
2023-03-22T09:47:45.230Z,19.23
2023-03-22T09:52:52.112Z,19.20
2023-03-22T09:58:26.051Z,19.14
2023-03-22T10:03:41.943Z,18.97
2023-03-22T10:09:07.285Z,18.93
2023-03-22T10:14:18.675Z,18.71
2023-03-22T10:19:30.275Z,18.69
2023-03-22T10:24:35.723Z,18.83
2023-03-22T10:29:46.411Z,18.86
2023-03-22T10:34:49.590Z,19.03
2023-03-22T10:39:57.147Z,19.16
2023-03-22T10:45:11.767Z,19.21
2023-03-22T10:50:23.008Z,19.14
2023-03-22T10:55:25.984Z,19.03
2023-03-22T11:00:33.299Z,19.06
2023-03-22T11:05:35.478Z,19.21
2023-03-22T11:10:38.246Z,18.81
2023-03-22T11:15:49.475Z,18.75
2023-03-22T11:21:18.688Z,19.02
2023-03-22T11:26:31.458Z,19.08
2023-03-22T11:32:01.591Z,18.81
2023-03-22T11:37:08.459Z,18.36
2023-03-22T11:42:21.061Z,18.23
2023-03-22T11:47:26.169Z,18.34
2023-03-22T11:52:28.535Z,18.29
2023-03-22T11:57:35.374Z,18.17
2023-03-22T12:03:02.073Z,18.23
2023-03-22T12:08:18.984Z,18.09
2023-03-22T12:13:32.678Z,18.06
2023-03-22T12:19:04.812Z,17.98
2023-03-22T12:24:26.540Z,18.00
2023-03-22T12:29:29.582Z,18.13
2023-03-22T12:34:45.764Z,18.23
2023-03-22T12:40:15.388Z,17.93
2023-03-22T12:45:28.061Z,17.54
2023-03-22T12:50:36.513Z,17.29
2023-03-22T12:55:40.400Z,17.26
2023-03-22T13:00:49.254Z,17.25
2023-03-22T13:06:20.475Z,17.28
2023-03-22T13:11:24.230Z,17.37
2023-03-22T13:16:47.808Z,17.47
2023-03-22T13:21:50.111Z,17.47
2023-03-22T13:26:55.121Z,17.28
2023-03-22T13:32:25.259Z,17.19
2023-03-22T13:37:37.737Z,17.18
2023-03-22T13:42:41.569Z,17.25
2023-03-22T13:47:46.001Z,17.40
2023-03-22T13:53:12.714Z,17.41
2023-03-22T13:58:54.111Z,17.46
2023-03-22T14:04:03.424Z,17.44
2023-03-22T14:09:23.084Z,17.52
2023-03-22T14:14:35.763Z,17.38
2023-03-22T14:19:41.133Z,17.13
